createdAt,value
2018-11-04T00:00:15.517Z,21.77
2018-11-04T00:02:43.780Z,20.33
2018-11-04T00:05:12.051Z,19.73
2018-11-04T00:07:40.302Z,21.07
2018-11-04T00:10:09.374Z,19.43
2018-11-04T00:12:37.652Z,19.30
2018-11-04T00:15:05.919Z,19.70
2018-11-04T00:17:34.952Z,19.43
2018-11-04T00:20:03.241Z,19.00
2018-11-04T00:22:31.474Z,17.70
2018-11-04T00:24:59.736Z,21.13
2018-11-04T00:27:28.007Z,19.57
2018-11-04T00:29:56.325Z,22.17
2018-11-04T00:32:24.542Z,21.20
2018-11-04T00:34:53.567Z,20.53
2018-11-04T00:37:21.833Z,18.87
2018-11-04T00:39:50.078Z,20.90
2018-11-04T00:42:18.344Z,19.67
2018-11-04T00:44:46.603Z,23.77
2018-11-04T00:47:14.900Z,18.40
2018-11-04T00:49:43.171Z,20.73
2018-11-04T00:52:11.422Z,19.93
2018-11-04T00:54:39.694Z,21.33
2018-11-04T00:57:07.946Z,20.87
2018-11-04T00:59:36.243Z,20.67
2018-11-04T01:02:04.514Z,21.73
2018-11-04T01:04:32.812Z,22.13
2018-11-04T01:07:01.044Z,19.17
2018-11-04T01:09:29.318Z,19.67
2018-11-04T01:11:57.629Z,20.77
2018-11-04T01:14:26.657Z,21.40
2018-11-04T01:16:55.874Z,20.37
2018-11-04T01:19:24.135Z,19.83
2018-11-04T01:21:53.166Z,21.87
2018-11-04T01:24:21.425Z,20.20
2018-11-04T01:26:49.669Z,26.03
2018-11-04T01:29:18.753Z,23.80
2018-11-04T01:31:46.970Z,24.33
2018-11-04T01:34:15.234Z,26.07
2018-11-04T01:36:44.546Z,23.83
2018-11-04T01:39:12.794Z,23.57
2018-11-04T01:41:41.820Z,26.40
2018-11-04T01:44:10.081Z,25.03
2018-11-04T01:46:38.351Z,24.97
2018-11-04T01:49:06.611Z,27.27
2018-11-04T01:51:35.643Z,25.93
2018-11-04T01:54:03.913Z,27.37
2018-11-04T01:56:32.805Z,25.33
2018-11-04T01:59:01.084Z,24.47
2018-11-04T02:01:29.346Z,21.77
2018-11-04T02:03:57.616Z,24.43
2018-11-04T02:06:25.879Z,22.90
2018-11-04T02:08:55.151Z,26.07
2018-11-04T02:11:23.399Z,24.50
2018-11-04T02:13:51.654Z,25.30
2018-11-04T02:16:19.923Z,27.03
2018-11-04T02:18:48.196Z,23.60
2018-11-04T02:21:17.190Z,24.13
2018-11-04T02:23:45.459Z,23.23
2018-11-04T02:26:13.722Z,22.77
2018-11-04T02:28:41.974Z,26.33
2018-11-04T02:31:11.263Z,23.57
2018-11-04T02:33:41.025Z,24.60
2018-11-04T02:36:09.264Z,23.83
2018-11-04T02:38:38.289Z,23.47
2018-11-04T02:41:06.570Z,26.90
2018-11-04T02:43:34.828Z,25.17
2018-11-04T02:46:03.124Z,23.30
2018-11-04T02:48:31.382Z,29.33
2018-11-04T02:50:59.647Z,26.77
2018-11-04T02:53:27.903Z,25.23
2018-11-04T02:55:56.966Z,25.23
2018-11-04T02:58:25.226Z,25.40
2018-11-04T03:00:53.539Z,26.80
2018-11-04T03:03:22.196Z,25.13
2018-11-04T03:05:50.446Z,23.43
2018-11-04T03:08:18.702Z,27.73
2018-11-04T03:10:47.019Z,26.17
2018-11-04T03:13:15.234Z,27.10
2018-11-04T03:15:44.246Z,23.60
2018-11-04T03:18:12.523Z,26.63
2018-11-04T03:20:40.770Z,25.43
2018-11-04T03:23:10.055Z,29.27
2018-11-04T03:25:38.303Z,23.90
2018-11-04T03:28:06.559Z,26.47
2018-11-04T03:30:34.830Z,23.43
2018-11-04T03:33:03.091Z,22.80
2018-11-04T03:35:31.393Z,26.37
2018-11-04T03:37:59.643Z,25.57
2018-11-04T03:40:27.922Z,23.43
2018-11-04T03:42:56.179Z,24.60
2018-11-04T03:45:25.211Z,24.83
2018-11-04T03:47:53.457Z,24.40
2018-11-04T03:50:21.727Z,24.33
2018-11-04T03:52:49.991Z,26.87
2018-11-04T03:55:19.026Z,24.10
2018-11-04T03:57:47.338Z,22.57
2018-11-04T04:00:15.599Z,25.93
2018-11-04T04:02:43.878Z,24.57
2018-11-04T04:05:12.144Z,27.23
2018-11-04T04:07:40.422Z,24.53
2018-11-04T04:10:08.707Z,24.03
2018-11-04T04:12:36.977Z,25.47
2018-11-04T04:15:05.255Z,23.57
2018-11-04T04:17:33.519Z,23.67
2018-11-04T04:20:01.803Z,25.10
2018-11-04T04:22:30.039Z,25.47
2018-11-04T04:24:58.311Z,29.37
2018-11-04T04:27:27.815Z,27.63
2018-11-04T04:29:56.847Z,27.70
2018-11-04T04:32:25.099Z,28.13
2018-11-04T04:34:53.963Z,24.67
2018-11-04T04:37:22.518Z,23.17
2018-11-04T04:39:50.826Z,22.97
2018-11-04T04:42:19.091Z,26.17
2018-11-04T04:44:47.556Z,21.97
2018-11-04T04:47:15.794Z,23.27
2018-11-04T04:49:44.857Z,23.23
2018-11-04T04:52:13.290Z,26.53
2018-11-04T04:54:41.543Z,24.10
2018-11-04T04:57:10.579Z,24.63
2018-11-04T04:59:39.618Z,23.30
2018-11-04T05:02:07.870Z,24.43
2018-11-04T05:04:36.143Z,25.07
2018-11-04T05:07:04.414Z,24.70
2018-11-04T05:09:32.663Z,25.03
2018-11-04T05:12:01.704Z,23.83
2018-11-04T05:14:29.950Z,22.53
2018-11-04T05:16:58.226Z,25.07
2018-11-04T05:19:26.486Z,24.30
2018-11-04T05:21:55.507Z,26.87
2018-11-04T05:24:23.782Z,24.77
2018-11-04T05:26:52.050Z,25.97
2018-11-04T05:29:20.306Z,26.13
2018-11-04T05:31:49.319Z,26.00
2018-11-04T05:34:17.590Z,23.30
2018-11-04T05:36:45.843Z,23.27
2018-11-04T05:39:14.911Z,23.73
2018-11-04T05:41:43.166Z,20.97
2018-11-04T05:44:11.419Z,24.20
2018-11-04T05:46:39.679Z,22.43
2018-11-04T05:49:07.950Z,22.23
2018-11-04T05:51:36.233Z,24.73
2018-11-04T05:54:04.482Z,21.20
2018-11-04T05:56:32.746Z,22.70
2018-11-04T05:59:01.003Z,22.97
2018-11-04T06:01:30.025Z,22.93
2018-11-04T06:03:59.055Z,22.17
2018-11-04T06:06:27.312Z,23.13
2018-11-04T06:08:56.342Z,21.63
2018-11-04T06:11:24.600Z,22.73
2018-11-04T06:13:54.614Z,24.23
2018-11-04T06:16:23.613Z,25.23
2018-11-04T06:18:51.862Z,22.37
2018-11-04T06:21:20.117Z,21.87
2018-11-04T06:23:48.377Z,25.77
2018-11-04T06:26:16.643Z,21.00
2018-11-04T06:28:44.920Z,23.37
2018-11-04T06:31:13.193Z,24.60
2018-11-04T06:33:41.464Z,22.37
2018-11-04T06:36:09.731Z,21.77
2018-11-04T06:38:37.986Z,23.63
2018-11-04T06:41:06.354Z,23.43
2018-11-04T06:43:34.539Z,24.77
2018-11-04T06:46:02.797Z,23.93
2018-11-04T06:48:31.058Z,22.10
2018-11-04T06:51:00.094Z,21.77
2018-11-04T06:53:28.670Z,24.10
2018-11-04T06:55:56.926Z,21.50
2018-11-04T06:58:25.177Z,23.87
2018-11-04T07:00:54.242Z,25.50
2018-11-04T07:03:23.074Z,23.00
2018-11-04T07:05:51.334Z,22.80
2018-11-04T07:08:20.371Z,24.87
2018-11-04T07:10:48.635Z,26.87
2018-11-04T07:13:16.879Z,24.93
2018-11-04T07:15:45.958Z,26.23
2018-11-04T07:18:14.273Z,24.47
2018-11-04T07:20:42.550Z,26.90
2018-11-04T07:23:10.800Z,27.23
2018-11-04T07:25:39.931Z,23.87
2018-11-04T07:28:08.075Z,26.37
2018-11-04T07:30:37.101Z,24.10
2018-11-04T07:33:05.382Z,26.73
2018-11-04T07:35:33.642Z,27.57
2018-11-04T07:38:02.214Z,26.13
2018-11-04T07:40:30.462Z,28.83
2018-11-04T07:42:59.485Z,25.37
2018-11-04T07:45:27.751Z,29.10
2018-11-04T07:47:56.010Z,28.37
2018-11-04T07:50:25.155Z,26.07
2018-11-04T07:52:53.305Z,27.03
2018-11-04T07:55:21.576Z,25.60
2018-11-04T07:57:49.842Z,28.00
2018-11-04T08:00:18.102Z,28.47
2018-11-04T08:02:47.123Z,28.87
2018-11-04T08:05:15.387Z,27.93
2018-11-04T08:07:43.650Z,27.93
2018-11-04T08:10:11.903Z,28.60
2018-11-04T08:12:40.178Z,27.50
2018-11-04T08:15:08.426Z,26.97
2018-11-04T08:17:37.685Z,31.00
2018-11-04T08:20:05.943Z,31.60
2018-11-04T08:22:34.974Z,31.23
2018-11-04T08:25:03.351Z,27.63
2018-11-04T08:27:31.608Z,28.03
2018-11-04T08:29:59.850Z,30.03
2018-11-04T08:32:28.884Z,29.97
2018-11-04T08:34:57.235Z,28.10
2018-11-04T08:37:26.247Z,30.43
2018-11-04T08:39:54.642Z,31.37
2018-11-04T08:42:22.767Z,32.30
2018-11-04T08:44:51.798Z,32.53
2018-11-04T08:47:20.073Z,32.13
2018-11-04T08:49:48.322Z,35.53
2018-11-04T08:52:16.596Z,38.27
2018-11-04T08:54:45.614Z,32.33
2018-11-04T08:57:13.887Z,32.97
2018-11-04T08:59:42.139Z,32.20
2018-11-04T09:02:11.463Z,33.07
2018-11-04T09:04:39.718Z,34.30
2018-11-04T09:07:07.976Z,33.53
2018-11-04T09:09:37.020Z,32.83
2018-11-04T09:12:05.253Z,30.63
2018-11-04T09:14:34.306Z,33.97
2018-11-04T09:17:02.586Z,33.13
2018-11-04T09:19:30.838Z,32.50
2018-11-04T09:21:59.302Z,32.50
2018-11-04T09:24:27.385Z,35.20
2018-11-04T09:26:55.644Z,32.87
2018-11-04T09:29:23.942Z,33.90
2018-11-04T09:31:52.211Z,34.30
2018-11-04T09:34:20.470Z,36.03
2018-11-04T09:36:48.726Z,36.57
2018-11-04T09:39:17.774Z,34.47
2018-11-04T09:41:46.052Z,33.80
2018-11-04T09:44:14.323Z,32.77
2018-11-04T09:46:42.587Z,33.87
2018-11-04T09:49:10.867Z,40.93
2018-11-04T09:51:39.114Z,37.73
2018-11-04T09:54:07.422Z,40.23
2018-11-04T09:56:36.036Z,38.43
2018-11-04T09:59:04.263Z,37.80
2018-11-04T10:01:33.100Z,36.40
2018-11-04T10:04:02.155Z,36.33
2018-11-04T10:06:30.423Z,33.50
2018-11-04T10:08:58.713Z,36.90
2018-11-04T10:11:26.998Z,37.60
2018-11-04T10:13:56.010Z,47.57
2018-11-04T10:16:24.346Z,37.93
2018-11-04T10:18:52.632Z,36.10
2018-11-04T10:21:20.795Z,73.03
2018-11-04T10:23:49.047Z,40.60
2018-11-04T10:26:17.321Z,37.80
2018-11-04T10:28:45.575Z,110.87
2018-11-04T10:31:13.832Z,55.83
2018-11-04T10:33:42.886Z,94.13
2018-11-04T10:36:11.188Z,173.33
2018-11-04T10:38:39.427Z,120.23
2018-11-04T10:41:07.704Z,67.23
2018-11-04T10:43:35.986Z,36.73
2018-11-04T10:46:04.256Z,56.67
2018-11-04T10:48:32.503Z,62.73
2018-11-04T10:51:00.801Z,56.00
2018-11-04T10:53:29.047Z,79.53
2018-11-04T10:55:57.364Z,43.63
2018-11-04T10:58:25.887Z,35.17
2018-11-04T11:00:54.131Z,31.63
2018-11-04T11:03:22.398Z,37.50
2018-11-04T11:05:50.673Z,33.07
2018-11-04T11:08:18.941Z,33.27
2018-11-04T11:10:47.273Z,32.80
2018-11-04T11:13:15.486Z,65.20
2018-11-04T11:15:43.761Z,37.63
2018-11-04T11:18:12.049Z,30.93
2018-11-04T11:20:40.297Z,54.03
2018-11-04T11:23:08.680Z,52.07
2018-11-04T11:25:36.868Z,32.47
2018-11-04T11:28:05.155Z,32.13
2018-11-04T11:30:34.183Z,32.07
2018-11-04T11:33:03.203Z,45.30
2018-11-04T11:35:31.455Z,27.83
2018-11-04T11:38:00.565Z,29.33
2018-11-04T11:40:28.754Z,31.73
2018-11-04T11:42:57.026Z,28.43
2018-11-04T11:45:25.298Z,28.30
2018-11-04T11:47:53.549Z,28.77
2018-11-04T11:50:22.619Z,30.40
2018-11-04T11:52:50.890Z,27.23
2018-11-04T11:55:19.154Z,30.40
2018-11-04T11:57:47.469Z,26.30
2018-11-04T12:00:16.491Z,26.13
2018-11-04T12:02:44.759Z,27.10
2018-11-04T12:05:13.842Z,26.07
2018-11-04T12:07:42.846Z,28.93
2018-11-04T12:10:11.134Z,26.70
2018-11-04T12:12:39.404Z,29.03
2018-11-04T12:15:07.675Z,28.63
2018-11-04T12:17:35.985Z,24.40
2018-11-04T12:20:04.622Z,24.57
2018-11-04T12:22:32.899Z,23.27
2018-11-04T12:25:01.195Z,24.27
2018-11-04T12:27:29.427Z,23.60
2018-11-04T12:29:58.462Z,24.60
2018-11-04T12:32:26.706Z,26.07
2018-11-04T12:34:55.310Z,25.87
2018-11-04T12:37:23.577Z,22.57
2018-11-04T12:39:51.847Z,24.67
2018-11-04T12:42:20.885Z,25.40
2018-11-04T12:44:49.163Z,22.20
2018-11-04T12:47:18.829Z,22.70
2018-11-04T12:49:47.090Z,24.47
2018-11-04T12:52:16.215Z,21.87
2018-11-04T12:54:44.394Z,22.17
2018-11-04T12:57:12.650Z,23.30
2018-11-04T12:59:40.916Z,23.67
2018-11-04T13:02:09.241Z,21.73
2018-11-04T13:04:38.239Z,24.47
2018-11-04T13:07:06.503Z,22.60
2018-11-04T13:09:35.075Z,23.60
2018-11-04T13:12:03.370Z,27.00
2018-11-04T13:14:31.637Z,28.27
2018-11-04T13:17:00.639Z,24.80
2018-11-04T13:19:28.910Z,24.83
2018-11-04T13:21:57.206Z,37.00
2018-11-04T13:24:25.444Z,36.57
2018-11-04T13:26:53.705Z,27.03
2018-11-04T13:29:21.991Z,30.47
2018-11-04T13:31:50.250Z,23.93
2018-11-04T13:34:18.522Z,22.33
2018-11-04T13:36:46.789Z,32.93
2018-11-04T13:39:15.334Z,24.70
2018-11-04T13:41:43.590Z,21.07
2018-11-04T13:44:11.850Z,25.50
2018-11-04T13:46:40.137Z,24.47
2018-11-04T13:49:08.445Z,28.23
2018-11-04T13:51:36.678Z,21.37
2018-11-04T13:54:04.943Z,21.40
2018-11-04T13:56:33.186Z,20.20
2018-11-04T13:59:01.584Z,22.20
2018-11-04T14:01:30.586Z,19.13
2018-11-04T14:03:58.910Z,19.90
2018-11-04T14:06:27.249Z,19.87
2018-11-04T14:08:55.503Z,19.57
2018-11-04T14:11:23.779Z,18.83
2018-11-04T14:13:52.046Z,19.40
2018-11-04T14:16:20.317Z,20.07
2018-11-04T14:18:48.566Z,20.13
2018-11-04T14:21:17.839Z,23.07
2018-11-04T14:23:46.144Z,34.17
2018-11-04T14:26:14.446Z,36.37
2018-11-04T14:28:42.723Z,40.47
2018-11-04T14:31:11.077Z,38.90
2018-11-04T14:33:40.043Z,17.93
2018-11-04T14:36:08.282Z,28.20
2018-11-04T14:38:36.606Z,21.30
2018-11-04T14:41:04.843Z,18.50
2018-11-04T14:43:33.863Z,21.43
2018-11-04T14:46:02.136Z,17.97
2018-11-04T14:48:30.429Z,30.00
2018-11-04T14:50:59.767Z,21.67
2018-11-04T14:53:28.015Z,23.20
2018-11-04T14:55:57.040Z,26.00
2018-11-04T14:58:25.316Z,19.20
2018-11-04T15:00:53.618Z,20.83
2018-11-04T15:03:22.586Z,20.17
2018-11-04T15:05:50.866Z,21.60
2018-11-04T15:08:19.147Z,16.70
2018-11-04T15:10:47.403Z,30.53
2018-11-04T15:13:15.709Z,22.20
2018-11-04T15:15:44.020Z,15.57
2018-11-04T15:18:12.267Z,17.43
2018-11-04T15:20:40.540Z,18.70
2018-11-04T15:23:08.838Z,17.43
2018-11-04T15:25:37.075Z,13.67
2018-11-04T15:28:05.351Z,14.57
2018-11-04T15:30:34.388Z,15.17
2018-11-04T15:33:03.438Z,14.93
2018-11-04T15:35:31.721Z,14.20
2018-11-04T15:38:00.789Z,14.77
2018-11-04T15:40:29.816Z,14.07
2018-11-04T15:42:58.035Z,15.67
2018-11-04T15:45:27.084Z,13.53
2018-11-04T15:47:55.360Z,14.40
2018-11-04T15:50:23.642Z,15.83
2018-11-04T15:52:51.898Z,14.73
2018-11-04T15:55:20.184Z,14.67
2018-11-04T15:57:48.440Z,13.77
2018-11-04T16:00:16.706Z,12.97
2018-11-04T16:02:45.040Z,14.13
2018-11-04T16:05:13.225Z,14.30
2018-11-04T16:07:42.254Z,13.87
2018-11-04T16:10:10.526Z,13.27
2018-11-04T16:12:38.899Z,12.53
2018-11-04T16:15:08.009Z,16.30
2018-11-04T16:17:36.289Z,13.87
2018-11-04T16:20:04.554Z,13.97
2018-11-04T16:22:32.896Z,16.17
2018-11-04T16:25:01.238Z,14.77
2018-11-04T16:27:29.486Z,13.73
2018-11-04T16:29:57.830Z,15.50
2018-11-04T16:32:26.098Z,12.77
2018-11-04T16:34:54.358Z,13.30
2018-11-04T16:37:23.455Z,13.57
2018-11-04T16:39:51.735Z,13.83
2018-11-04T16:42:20.758Z,21.17
2018-11-04T16:44:49.016Z,17.80
2018-11-04T16:47:17.291Z,13.13
2018-11-04T16:49:45.581Z,15.43
2018-11-04T16:52:13.814Z,15.83
2018-11-04T16:54:42.851Z,13.07
2018-11-04T16:57:11.108Z,14.07
2018-11-04T16:59:39.392Z,14.97
2018-11-04T17:02:08.398Z,12.27
2018-11-04T17:04:36.955Z,12.90
2018-11-04T17:07:04.990Z,12.93
2018-11-04T17:09:33.366Z,14.37
2018-11-04T17:12:01.863Z,10.63
2018-11-04T17:14:30.926Z,13.93
2018-11-04T17:16:59.186Z,12.40
2018-11-04T17:19:27.443Z,14.17
2018-11-04T17:21:55.715Z,11.83
2018-11-04T17:24:23.966Z,13.10
2018-11-04T17:26:53.221Z,12.97
2018-11-04T17:29:21.502Z,10.90
2018-11-04T17:31:50.490Z,11.37
2018-11-04T17:34:18.756Z,10.93
2018-11-04T17:36:47.058Z,12.73
2018-11-04T17:39:15.596Z,15.37
2018-11-04T17:41:43.877Z,11.60
2018-11-04T17:44:12.148Z,13.10
2018-11-04T17:46:41.373Z,13.87
2018-11-04T17:49:09.608Z,10.97
2018-11-04T17:51:37.920Z,9.73
2018-11-04T17:54:06.222Z,13.77
2018-11-04T17:56:36.023Z,12.63
2018-11-04T17:59:04.319Z,12.97
2018-11-04T18:01:33.376Z,11.37
2018-11-04T18:04:01.629Z,11.00
2018-11-04T18:06:30.207Z,12.00
2018-11-04T18:08:58.383Z,10.57
2018-11-04T18:11:26.629Z,12.17
2018-11-04T18:13:55.012Z,10.40
2018-11-04T18:16:23.189Z,12.93
2018-11-04T18:18:51.446Z,12.40
2018-11-04T18:21:20.482Z,22.87
2018-11-04T18:23:48.743Z,13.87
2018-11-04T18:26:17.106Z,14.87
2018-11-04T18:28:45.288Z,23.50
2018-11-04T18:31:13.560Z,27.83
2018-11-04T18:33:42.107Z,11.87
2018-11-04T18:36:11.487Z,11.83
2018-11-04T18:38:39.795Z,12.67
2018-11-04T18:41:09.623Z,11.33
2018-11-04T18:43:38.687Z,11.97
2018-11-04T18:46:06.899Z,14.67
2018-11-04T18:48:35.189Z,20.07
2018-11-04T18:51:03.444Z,11.10
2018-11-04T18:53:31.740Z,11.93
2018-11-04T18:56:00.011Z,12.23
2018-11-04T18:58:28.282Z,12.90
2018-11-04T19:00:56.535Z,13.33
2018-11-04T19:03:25.925Z,12.37
2018-11-04T19:05:54.956Z,14.93
2018-11-04T19:08:23.217Z,12.70
2018-11-04T19:10:51.499Z,12.57
2018-11-04T19:13:19.770Z,15.00
2018-11-04T19:15:48.065Z,13.23
2018-11-04T19:18:16.334Z,11.33
2018-11-04T19:20:44.593Z,12.63
2018-11-04T19:23:13.150Z,12.60
2018-11-04T19:25:42.176Z,12.53
2018-11-04T19:28:10.451Z,14.13
2018-11-04T19:30:38.740Z,13.93
2018-11-04T19:33:06.979Z,13.30
2018-11-04T19:35:35.256Z,12.00
2018-11-04T19:38:04.291Z,12.83
2018-11-04T19:40:32.556Z,12.23
2018-11-04T19:43:00.826Z,11.20
2018-11-04T19:45:29.869Z,11.93
2018-11-04T19:47:58.160Z,11.27
2018-11-04T19:50:26.361Z,12.17
2018-11-04T19:52:54.598Z,12.03
2018-11-04T19:55:23.656Z,11.17
2018-11-04T19:57:51.910Z,13.00
2018-11-04T20:00:20.176Z,12.13
2018-11-04T20:02:48.457Z,10.93
2018-11-04T20:05:16.792Z,11.87
2018-11-04T20:07:45.722Z,11.83
2018-11-04T20:10:13.975Z,11.80
2018-11-04T20:12:43.011Z,11.60
2018-11-04T20:15:11.258Z,11.87
2018-11-04T20:17:39.503Z,19.90
2018-11-04T20:20:09.548Z,15.57
2018-11-04T20:22:38.449Z,13.17
2018-11-04T20:28:04.575Z,13.07
2018-11-04T20:30:32.913Z,12.07
2018-11-04T20:33:01.119Z,13.37
2018-11-04T20:35:29.385Z,12.83
2018-11-04T20:37:58.428Z,14.20
2018-11-04T20:40:43.801Z,11.07
2018-11-04T20:43:12.047Z,13.73
2018-11-04T20:45:41.082Z,13.43
2018-11-04T20:48:09.610Z,12.83
2018-11-04T20:50:57.415Z,14.87
2018-11-04T20:53:25.690Z,13.40
2018-11-04T20:55:53.979Z,13.43
2018-11-04T20:58:22.402Z,12.63
2018-11-04T21:00:50.483Z,11.97
2018-11-04T21:03:18.784Z,12.60
2018-11-04T21:05:47.026Z,13.37
2018-11-04T21:08:15.298Z,15.17
2018-11-04T21:10:43.558Z,12.63
2018-11-04T21:13:11.807Z,15.37
2018-11-04T21:15:40.940Z,12.93
2018-11-04T21:18:09.936Z,11.90
2018-11-04T21:20:38.184Z,14.07
2018-11-04T21:23:06.454Z,14.37
2018-11-04T21:25:34.899Z,15.67
2018-11-04T21:28:03.908Z,15.10
2018-11-04T21:30:32.006Z,13.73
2018-11-04T21:33:00.310Z,12.07
2018-11-04T21:35:28.586Z,12.30
2018-11-04T21:37:56.915Z,12.53
2018-11-04T21:40:25.391Z,12.77
2018-11-04T21:42:53.713Z,13.67
2018-11-04T21:45:21.917Z,13.63
2018-11-04T21:47:50.188Z,13.03
2018-11-04T21:50:18.464Z,11.83
2018-11-04T21:52:46.730Z,13.93
2018-11-04T21:55:15.070Z,13.53
2018-11-04T21:57:43.250Z,14.40
2018-11-04T22:00:11.523Z,13.83
2018-11-04T22:02:39.911Z,13.23
2018-11-04T22:05:08.053Z,13.10
2018-11-04T22:07:37.091Z,13.87
2018-11-04T22:10:05.355Z,13.37
2018-11-04T22:12:34.405Z,13.17
2018-11-04T22:15:02.657Z,29.20
2018-11-04T22:17:30.979Z,39.07
2018-11-04T22:20:00.016Z,37.37
2018-11-04T22:22:28.261Z,15.43
2018-11-04T22:24:56.538Z,15.20
2018-11-04T22:27:24.795Z,12.43
2018-11-04T22:29:53.058Z,15.13
2018-11-04T22:32:22.077Z,14.63
2018-11-04T22:34:50.361Z,11.73
2018-11-04T22:37:18.602Z,14.00
2018-11-04T22:39:47.637Z,13.13
2018-11-04T22:42:15.984Z,12.87
2018-11-04T22:44:44.882Z,13.07
2018-11-04T22:47:13.189Z,13.83
2018-11-04T22:49:41.454Z,13.57
2018-11-04T22:52:09.698Z,13.63
2018-11-04T22:54:37.954Z,14.93
2018-11-04T22:57:07.363Z,13.77
2018-11-04T22:59:36.395Z,14.03
2018-11-04T23:02:04.651Z,15.93
2018-11-04T23:04:33.153Z,13.97
2018-11-04T23:07:01.410Z,13.70
2018-11-04T23:09:29.662Z,15.37
2018-11-04T23:11:57.942Z,13.33
2018-11-04T23:14:26.224Z,13.30
2018-11-04T23:16:55.233Z,13.27
2018-11-04T23:19:23.536Z,13.80
2018-11-04T23:21:51.775Z,13.47
2018-11-04T23:24:20.050Z,14.03
2018-11-04T23:26:48.319Z,13.83
2018-11-04T23:29:16.579Z,13.33
2018-11-04T23:31:44.857Z,12.77
2018-11-04T23:34:13.899Z,15.77
2018-11-04T23:36:42.144Z,13.57
2018-11-04T23:39:10.406Z,15.37
2018-11-04T23:41:38.679Z,12.67
2018-11-04T23:44:06.984Z,11.90
2018-11-04T23:46:35.716Z,15.13
2018-11-04T23:49:03.955Z,14.90
2018-11-04T23:51:32.312Z,13.50
2018-11-04T23:54:00.582Z,13.17
2018-11-04T23:56:28.837Z,15.43
2018-11-04T23:58:57.358Z,13.63
